Time;durP1;ratioP1;P1;durP2;ratioP2;P2;SDS_P1;SDS_P2;PMS_P1;PMS_P2;Temp;Humidity;BMP_temperature;BMP_pressure;BME280_temperature;BME280_humidity;BME280_pressure;Samples;Min_cycle;Max_cycle;Signal;HPM_P1;HPM_P2
2023/12/06 00:00:55;;;;;;;2.50;2.40;;;5.60;99.90;;;;;;10406061;28;20252;-76
2023/12/06 00:05:57;;;;;;;2.50;2.40;;;5.60;99.90;;;;;;10395107;28;20233;-77
2023/12/06 00:10:59;;;;;;;2.60;2.50;;;5.60;99.90;;;;;;10404652;28;20202;-77
2023/12/06 00:16:02;;;;;;;2.40;2.30;;;5.60;99.90;;;;;;10396815;28;20217;-77
2023/12/06 00:21:05;;;;;;;2.10;2.00;;;5.70;99.90;;;;;;10405268;28;20733;-76
2023/12/06 00:26:07;;;;;;;2.13;2.03;;;5.70;99.90;;;;;;10390077;28;20852;-77
2023/12/06 00:31:10;;;;;;;1.90;1.87;;;5.70;99.90;;;;;;10405802;28;20202;-77
2023/12/06 00:36:12;;;;;;;1.90;1.80;;;5.80;99.90;;;;;;10388740;28;20242;-76
2023/12/06 00:41:14;;;;;;;1.80;1.70;;;5.80;99.90;;;;;;10404650;28;20267;-77
2023/12/06 00:46:17;;;;;;;1.60;1.60;;;5.90;99.90;;;;;;10400329;28;20229;-77
2023/12/06 00:51:19;;;;;;;1.70;1.70;;;5.90;99.90;;;;;;10427269;28;20578;-76
2023/12/06 00:56:21;;;;;;;1.70;1.70;;;5.90;99.90;;;;;;10380324;28;20226;-77
2023/12/06 01:01:24;;;;;;;1.77;1.67;;;5.90;99.90;;;;;;10367944;28;20551;-77
2023/12/06 01:06:26;;;;;;;1.60;1.60;;;6.00;99.90;;;;;;10366452;28;20222;-76
2023/12/06 01:11:28;;;;;;;1.73;1.63;;;6.00;99.90;;;;;;10366588;28;20210;-76
2023/12/06 01:16:31;;;;;;;1.53;1.53;;;6.00;99.90;;;;;;10393215;28;20225;-76
2023/12/06 01:21:33;;;;;;;1.50;1.40;;;5.90;99.90;;;;;;10403284;28;20194;-76
2023/12/06 01:26:35;;;;;;;1.50;1.50;;;5.90;99.90;;;;;;10431692;28;20703;-77
2023/12/06 01:31:38;;;;;;;1.53;1.53;;;5.90;99.90;;;;;;10423179;28;20255;-77
2023/12/06 01:36:40;;;;;;;1.60;1.60;;;5.80;99.90;;;;;;10410385;28;20246;-77
2023/12/06 01:41:46;;;;;;;2.00;1.93;;;5.80;99.90;;;;;;10438498;28;20205;-77
2023/12/06 01:46:49;;;;;;;1.90;1.80;;;5.70;99.90;;;;;;10408550;28;20249;-77
2023/12/06 01:51:51;;;;;;;1.90;1.90;;;5.60;99.90;;;;;;10370498;28;20229;-76
2023/12/06 01:56:54;;;;;;;1.90;1.90;;;5.60;99.90;;;;;;10426257;28;20223;-76
2023/12/06 02:01:57;;;;;;;1.70;1.70;;;5.60;99.90;;;;;;10434998;28;20201;-76
2023/12/06 02:06:59;;;;;;;1.60;1.60;;;5.60;99.90;;;;;;10438516;28;20225;-77
2023/12/06 02:12:01;;;;;;;1.77;1.77;;;5.60;99.90;;;;;;10437474;28;20243;-76
2023/12/06 02:17:05;;;;;;;1.70;1.70;;;5.60;99.90;;;;;;10425669;28;20217;-76
2023/12/06 02:22:08;;;;;;;1.80;1.80;;;5.60;99.90;;;;;;10430724;28;20204;-76
2023/12/06 02:27:11;;;;;;;1.50;1.50;;;5.60;99.90;;;;;;10435744;28;20266;-77
2023/12/06 02:32:13;;;;;;;1.73;1.63;;;5.70;99.90;;;;;;10435518;28;20278;-77
2023/12/06 02:37:17;;;;;;;1.40;1.40;;;5.70;99.90;;;;;;10434662;28;20232;-77
2023/12/06 02:42:20;;;;;;;1.80;1.80;;;5.70;99.90;;;;;;10434206;28;20201;-77
2023/12/06 02:47:22;;;;;;;1.60;1.50;;;5.70;99.90;;;;;;10424775;28;20229;-76
2023/12/06 02:52:24;;;;;;;2.50;1.60;;;5.80;99.90;;;;;;10432994;28;20197;-76
2023/12/06 02:57:27;;;;;;;1.50;1.50;;;5.90;99.90;;;;;;10435866;28;20283;-77
2023/12/06 03:02:29;;;;;;;1.43;1.40;;;6.00;99.90;;;;;;10435483;28;20268;-76
2023/12/06 03:07:31;;;;;;;1.50;1.50;;;6.00;99.90;;;;;;10435616;28;20581;-76
2023/12/06 03:12:34;;;;;;;1.30;1.20;;;6.00;99.90;;;;;;10433715;28;20201;-76
2023/12/06 03:17:36;;;;;;;1.33;1.33;;;6.00;99.90;;;;;;10417556;28;20221;-77
2023/12/06 03:22:38;;;;;;;1.57;1.50;;;6.10;99.90;;;;;;10427913;28;20554;-76
2023/12/06 03:27:42;;;;;;;1.60;1.60;;;6.10;99.90;;;;;;10431333;28;20302;-75
2023/12/06 03:32:44;;;;;;;1.60;1.50;;;6.10;99.90;;;;;;10430731;28;20686;-78
2023/12/06 03:37:46;;;;;;;1.60;1.50;;;6.10;99.90;;;;;;10429237;28;20264;-75
2023/12/06 03:42:49;;;;;;;1.70;1.70;;;6.20;99.90;;;;;;10427248;28;20251;-75
2023/12/06 03:47:51;;;;;;;1.87;1.80;;;6.20;99.90;;;;;;10408510;28;20640;-77
2023/12/06 03:52:53;;;;;;;1.60;1.60;;;6.20;99.90;;;;;;10421674;28;20228;-78
2023/12/06 03:57:56;;;;;;;1.70;1.60;;;6.20;99.90;;;;;;10424928;28;20209;-74
2023/12/06 04:02:58;;;;;;;1.50;1.50;;;6.20;99.90;;;;;;10424978;28;20229;-77
2023/12/06 04:08:00;;;;;;;1.90;1.90;;;6.30;99.90;;;;;;10422597;28;20650;-77
2023/12/06 04:13:04;;;;;;;1.60;1.60;;;6.30;99.90;;;;;;10421581;28;20247;-78
2023/12/06 04:18:06;;;;;;;1.80;1.80;;;6.20;99.90;;;;;;10404445;28;20264;-75
2023/12/06 04:23:07;;;;;;;1.70;1.70;;;6.20;99.90;;;;;;10415946;28;20544;-78
2023/12/06 04:28:11;;;;;;;1.60;1.60;;;6.30;99.90;;;;;;10418784;28;20253;-77
2023/12/06 04:33:12;;;;;;;1.60;1.60;;;6.30;99.90;;;;;;10418916;28;20224;-77
2023/12/06 04:38:14;;;;;;;1.50;1.50;;;6.30;99.90;;;;;;10417671;28;20209;-78
2023/12/06 04:43:18;;;;;;;2.10;2.00;;;6.30;99.90;;;;;;10416524;28;20575;-78
2023/12/06 04:48:21;;;;;;;1.90;1.90;;;6.30;99.90;;;;;;10416335;28;20279;-77
2023/12/06 04:53:23;;;;;;;1.90;1.80;;;6.30;99.90;;;;;;10413426;28;20205;-74
2023/12/06 04:58:26;;;;;;;2.20;2.10;;;6.20;99.90;;;;;;10412898;28;20621;-77
2023/12/06 05:03:28;;;;;;;1.60;1.60;;;6.30;99.90;;;;;;10411005;28;20544;-78
2023/12/06 05:08:30;;;;;;;1.40;1.40;;;6.30;99.90;;;;;;10405440;28;20213;-78
2023/12/06 05:13:33;;;;;;;1.90;1.90;;;6.30;99.90;;;;;;10407676;28;20204;-78
2023/12/06 05:18:35;;;;;;;1.60;1.50;;;6.30;99.90;;;;;;10416050;28;20217;-75
2023/12/06 05:23:37;;;;;;;1.53;1.53;;;6.30;99.90;;;;;;10407288;28;20759;-78
2023/12/06 05:28:40;;;;;;;2.93;2.73;;;6.30;99.90;;;;;;10437233;22;20238;-81
2023/12/06 05:33:42;;;;;;;1.80;1.70;;;6.40;99.90;;;;;;10416155;28;20206;-81
2023/12/06 05:38:44;;;;;;;1.13;1.13;;;6.30;99.90;;;;;;10403406;28;20214;-81
2023/12/06 05:43:47;;;;;;;1.77;1.67;;;6.30;99.90;;;;;;10379298;28;20702;-81
2023/12/06 05:48:49;;;;;;;2.10;1.80;;;6.40;99.90;;;;;;10406178;28;20226;-80
2023/12/06 05:53:51;;;;;;;1.70;1.60;;;6.30;99.90;;;;;;10353824;28;20777;-81
2023/12/06 05:58:54;;;;;;;1.60;1.50;;;6.40;99.90;;;;;;10394183;28;20210;-81
2023/12/06 06:03:56;;;;;;;1.73;1.73;;;6.40;99.90;;;;;;10371192;28;20207;-81
2023/12/06 06:08:58;;;;;;;1.80;1.80;;;6.30;99.90;;;;;;10395379;28;20249;-80
2023/12/06 06:14:01;;;;;;;2.00;1.90;;;6.30;99.90;;;;;;10368078;28;20207;-80
2023/12/06 06:19:03;;;;;;;2.00;1.90;;;6.30;99.90;;;;;;10383477;28;20226;-81
2023/12/06 06:24:06;;;;;;;1.90;1.80;;;6.30;99.90;;;;;;10349281;28;20249;-82
2023/12/06 06:29:09;;;;;;;1.60;1.57;;;6.30;99.90;;;;;;10362403;28;20230;-82
2023/12/06 06:34:11;;;;;;;1.60;1.50;;;6.30;99.90;;;;;;10407281;28;20310;-81
2023/12/06 06:39:13;;;;;;;1.90;1.80;;;6.30;99.90;;;;;;10382265;28;20219;-82
2023/12/06 06:44:19;;;;;;;1.87;1.77;;;6.30;99.90;;;;;;10408779;28;20676;-82
2023/12/06 06:49:21;;;;;;;1.40;1.40;;;6.40;99.90;;;;;;10354818;28;20235;-81
2023/12/06 06:54:23;;;;;;;1.27;1.27;;;6.40;99.90;;;;;;10411692;28;20249;-77
2023/12/06 06:59:26;;;;;;;2.07;1.97;;;6.40;99.90;;;;;;10388254;28;20278;-81
2023/12/06 07:04:28;;;;;;;1.70;1.60;;;6.40;99.90;;;;;;10414063;28;20205;-82
2023/12/06 07:09:30;;;;;;;2.00;1.90;;;6.40;99.90;;;;;;10370365;28;20246;-82
2023/12/06 07:14:34;;;;;;;1.90;1.80;;;6.40;99.90;;;;;;10413728;28;20207;-81
2023/12/06 07:19:35;;;;;;;1.40;1.40;;;6.40;99.90;;;;;;10383285;28;20771;-81
2023/12/06 07:24:37;;;;;;;2.13;2.03;;;6.40;99.90;;;;;;10414694;28;20591;-81
2023/12/06 07:29:42;;;;;;;2.03;1.90;;;6.50;99.90;;;;;;10386183;28;20284;-80
2023/12/06 07:34:44;;;;;;;1.50;1.50;;;6.50;99.90;;;;;;10416684;28;20194;-81
2023/12/06 07:39:46;;;;;;;1.77;1.67;;;6.60;99.90;;;;;;10387215;28;20696;-81
2023/12/06 07:44:49;;;;;;;1.63;1.60;;;6.60;99.90;;;;;;10400990;28;20214;-79
2023/12/06 07:49:51;;;;;;;1.87;1.77;;;6.60;99.90;;;;;;10379309;28;20195;-82
2023/12/06 07:54:53;;;;;;;2.00;1.90;;;6.70;99.90;;;;;;10421111;28;20191;-81
2023/12/06 07:59:56;;;;;;;1.90;1.80;;;6.70;99.90;;;;;;10368550;28;20253;-81
2023/12/06 08:05:02;;;;;;;3.80;3.50;;;6.70;99.90;;;;;;10410431;28;20261;-80
2023/12/06 08:10:09;;;;;;;2.80;2.60;;;6.70;99.90;;;;;;10415338;28;20203;-81
2023/12/06 08:15:12;;;;;;;2.47;2.27;;;6.80;99.90;;;;;;10375801;28;20216;-81
2023/12/06 08:20:14;;;;;;;3.03;2.50;;;6.80;99.90;;;;;;10380019;28;20210;-81
2023/12/06 08:25:16;;;;;;;2.17;2.00;;;6.80;99.90;;;;;;10413213;28;20280;-81
2023/12/06 08:30:20;;;;;;;2.53;2.43;;;6.90;99.90;;;;;;10371075;28;20675;-81
2023/12/06 08:35:21;;;;;;;2.70;2.50;;;6.90;99.90;;;;;;10357859;28;20222;-81
2023/12/06 08:40:24;;;;;;;3.63;3.33;;;6.90;99.90;;;;;;10358352;28;20213;-81
2023/12/06 08:45:27;;;;;;;4.57;4.17;;;6.90;99.90;;;;;;10380754;28;20289;-81
2023/12/06 08:50:29;;;;;;;6.27;5.73;;;7.00;99.90;;;;;;10377162;28;20203;-80
2023/12/06 08:55:31;;;;;;;7.40;6.70;;;7.00;99.90;;;;;;10379760;28;20241;-80
2023/12/06 09:00:34;;;;;;;9.60;6.97;;;7.00;99.90;;;;;;10375214;28;20357;-80
2023/12/06 09:05:36;;;;;;;8.20;7.40;;;7.00;99.90;;;;;;10379043;28;20230;-82
2023/12/06 09:10:38;;;;;;;8.90;8.00;;;6.90;99.90;;;;;;10372366;28;20233;-79
2023/12/06 09:15:42;;;;;;;9.10;8.30;;;6.80;99.90;;;;;;10381084;28;20293;-79
2023/12/06 09:20:43;;;;;;;9.90;9.10;;;6.80;99.90;;;;;;10362509;28;20202;-79
2023/12/06 09:25:46;;;;;;;10.63;9.73;;;6.70;99.90;;;;;;10372607;28;20340;-79
2023/12/06 09:30:49;;;;;;;10.07;9.17;;;6.70;99.90;;;;;;10364830;28;20626;-80
2023/12/06 09:35:51;;;;;;;9.80;9.00;;;6.70;99.90;;;;;;10372643;28;20280;-79
2023/12/06 09:40:53;;;;;;;12.03;10.97;;;6.70;99.90;;;;;;10386860;28;20202;-76
2023/12/06 09:45:56;;;;;;;10.87;9.97;;;6.70;99.90;;;;;;10364140;28;20222;-79
2023/12/06 09:50:59;;;;;;;11.07;10.17;;;6.70;99.90;;;;;;10395079;28;20233;-79
2023/12/06 09:56:02;;;;;;;12.00;10.90;;;6.60;99.90;;;;;;10384079;28;20773;-77
2023/12/06 10:01:05;;;;;;;10.90;9.90;;;6.60;99.90;;;;;;10381647;28;20278;-80
2023/12/06 10:06:08;;;;;;;10.53;9.63;;;6.70;99.90;;;;;;10372921;28;20679;-79
2023/12/06 10:11:12;;;;;;;10.87;9.90;;;6.70;99.90;;;;;;10368857;28;20336;-79
2023/12/06 10:16:17;;;;;;;10.93;10.03;;;6.70;99.90;;;;;;10383137;28;20227;-80
2023/12/06 10:21:20;;;;;;;10.80;9.70;;;6.60;99.90;;;;;;10393377;28;20214;-79
2023/12/06 10:26:22;;;;;;;9.50;8.60;;;6.70;99.90;;;;;;10397331;28;20281;-79
2023/12/06 10:31:26;;;;;;;9.67;8.77;;;6.70;99.90;;;;;;10381663;28;20625;-80
2023/12/06 10:36:28;;;;;;;9.87;8.97;;;6.80;99.90;;;;;;10382164;28;20306;-79
2023/12/06 10:41:32;;;;;;;10.27;9.43;;;6.80;99.90;;;;;;10381931;28;20194;-80
2023/12/06 10:46:37;;;;;;;10.10;9.10;;;6.90;99.90;;;;;;10379048;28;20237;-79
2023/12/06 10:51:41;;;;;;;9.03;8.07;;;6.90;99.90;;;;;;10381101;28;20206;-78
2023/12/06 10:56:44;;;;;;;9.27;8.37;;;6.90;99.90;;;;;;10382203;28;20240;-80
2023/12/06 11:01:48;;;;;;;9.10;8.30;;;6.90;99.90;;;;;;10381452;28;20259;-79
2023/12/06 11:06:59;;;;;;;8.60;7.90;;;6.90;99.90;;;;;;10376984;28;20636;-78
2023/12/06 11:12:12;;;;;;;8.97;8.27;;;6.90;99.90;;;;;;10380967;28;20198;-80
2023/12/06 11:17:30;;;;;;;9.57;8.67;;;7.00;99.90;;;;;;10384160;28;20260;-80
2023/12/06 11:22:33;;;;;;;8.03;7.37;;;7.00;99.90;;;;;;10346566;28;20198;-79
2023/12/06 11:27:35;;;;;;;8.87;8.17;;;7.00;99.90;;;;;;10428105;23;20386;-78
2023/12/06 11:32:45;;;;;;;8.47;7.57;;;7.00;99.90;;;;;;10466357;28;20201;-75
2023/12/06 11:37:54;;;;;;;8.60;7.80;;;7.00;99.90;;;;;;10420308;28;20220;-76
2023/12/06 11:42:57;;;;;;;8.83;8.13;;;6.90;99.90;;;;;;10452261;28;20288;-77
2023/12/06 11:48:02;;;;;;;8.50;7.80;;;6.90;99.90;;;;;;10451422;28;20233;-76
2023/12/06 11:53:05;;;;;;;8.60;7.90;;;6.90;99.90;;;;;;10451989;28;20545;-76
2023/12/06 11:58:09;;;;;;;8.80;8.00;;;6.90;99.90;;;;;;10453839;28;20577;-76
2023/12/06 12:03:13;;;;;;;8.90;8.20;;;6.90;99.90;;;;;;10452396;28;20255;-76
2023/12/06 12:08:15;;;;;;;8.40;7.70;;;6.90;99.90;;;;;;10450686;28;20253;-76
2023/12/06 12:13:18;;;;;;;9.60;8.80;;;6.80;99.90;;;;;;10451338;28;20201;-76
2023/12/06 12:18:22;;;;;;;8.33;7.63;;;6.90;99.90;;;;;;10433184;28;20212;-77
2023/12/06 12:23:24;;;;;;;8.57;7.87;;;6.90;99.90;;;;;;10451429;28;20209;-76
2023/12/06 12:28:26;;;;;;;9.70;8.80;;;6.90;99.90;;;;;;10452199;28;20221;-78
2023/12/06 12:33:30;;;;;;;10.37;9.47;;;6.80;99.90;;;;;;10453965;28;20201;-76
2023/12/06 12:38:33;;;;;;;9.47;8.67;;;6.80;99.90;;;;;;10450837;28;20221;-76
2023/12/06 12:43:35;;;;;;;8.10;7.30;;;6.90;99.90;;;;;;10450633;28;20621;-77
2023/12/06 12:48:38;;;;;;;8.60;7.90;;;6.90;99.90;;;;;;10449688;28;20271;-76
2023/12/06 12:53:42;;;;;;;8.37;7.67;;;7.00;99.90;;;;;;10450175;28;20809;-76
2023/12/06 12:58:46;;;;;;;9.03;8.30;;;7.00;99.90;;;;;;10448828;28;20217;-76
2023/12/06 13:03:49;;;;;;;9.10;8.20;;;7.00;99.90;;;;;;10452335;28;20224;-76
2023/12/06 13:08:56;;;;;;;8.90;8.07;;;7.10;99.90;;;;;;10448349;28;20700;-76
2023/12/06 13:13:59;;;;;;;8.53;7.77;;;7.10;99.90;;;;;;10446812;28;20197;-76
2023/12/06 13:19:03;;;;;;;8.50;7.80;;;7.10;99.90;;;;;;10442790;28;20223;-77
2023/12/06 13:24:05;;;;;;;9.13;8.33;;;7.10;99.90;;;;;;10460730;28;20225;-77
2023/12/06 13:29:07;;;;;;;8.30;7.50;;;7.10;99.90;;;;;;10461057;28;20236;-77
2023/12/06 13:34:11;;;;;;;8.50;7.70;;;7.10;99.90;;;;;;10461132;28;20201;-78
2023/12/06 13:39:12;;;;;;;9.60;8.70;;;7.10;99.90;;;;;;10463061;28;20213;-78
2023/12/06 13:44:14;;;;;;;8.60;7.80;;;7.10;99.90;;;;;;10457760;28;20689;-78
2023/12/06 13:49:18;;;;;;;8.23;7.40;;;7.10;99.90;;;;;;10440484;28;20279;-78
2023/12/06 13:54:21;;;;;;;6.90;6.40;;;7.10;99.90;;;;;;10457630;28;20291;-77
2023/12/06 13:59:23;;;;;;;7.13;6.53;;;7.10;99.90;;;;;;10453825;28;20217;-77
2023/12/06 14:04:26;;;;;;;7.70;7.10;;;7.10;99.90;;;;;;10470069;28;20259;-78
2023/12/06 14:09:30;;;;;;;7.77;7.00;;;7.10;99.90;;;;;;10457113;28;20236;-78
2023/12/06 14:14:32;;;;;;;8.40;7.60;;;7.10;99.90;;;;;;10455995;28;20261;-77
2023/12/06 14:19:35;;;;;;;8.00;7.40;;;7.00;99.90;;;;;;10451574;28;20266;-78
2023/12/06 14:24:37;;;;;;;8.73;7.93;;;7.00;99.90;;;;;;10452007;28;20205;-78
2023/12/06 14:29:39;;;;;;;7.90;7.30;;;7.00;99.90;;;;;;10452579;28;20225;-78
2023/12/06 14:34:42;;;;;;;8.13;7.53;;;7.00;99.90;;;;;;10450923;28;20235;-78
2023/12/06 14:39:46;;;;;;;8.17;7.47;;;6.90;99.90;;;;;;10454670;28;20213;-78
2023/12/06 14:44:48;;;;;;;10.77;9.80;;;6.90;99.90;;;;;;10458550;28;20197;-79
2023/12/06 14:49:51;;;;;;;10.00;9.10;;;6.80;99.90;;;;;;10461198;28;20224;-78
2023/12/06 14:54:53;;;;;;;9.00;8.20;;;6.80;99.90;;;;;;10459845;28;20662;-78
2023/12/06 14:59:55;;;;;;;10.93;9.93;;;6.80;99.90;;;;;;10460638;28;20594;-77
2023/12/06 15:04:58;;;;;;;9.20;8.30;;;6.80;99.90;;;;;;10460959;28;20196;-77
2023/12/06 15:10:00;;;;;;;11.70;8.93;;;6.80;99.90;;;;;;10456257;28;20251;-77
2023/12/06 15:15:01;;;;;;;8.90;8.07;;;6.80;99.90;;;;;;10458933;28;20220;-78
2023/12/06 15:20:08;;;;;;;9.67;8.50;;;6.80;99.90;;;;;;10462873;28;20225;-78
2023/12/06 15:25:10;;;;;;;9.10;8.30;;;6.80;99.90;;;;;;10458668;28;20212;-78
2023/12/06 15:30:13;;;;;;;10.93;8.33;;;6.90;99.90;;;;;;10461286;28;20283;-78
2023/12/06 15:35:16;;;;;;;9.53;8.73;;;6.80;99.90;;;;;;10464637;28;20201;-78
2023/12/06 15:40:19;;;;;;;8.97;8.20;;;6.70;99.90;;;;;;10469578;28;20256;-78
2023/12/06 15:45:22;;;;;;;9.67;8.67;;;6.70;99.90;;;;;;10468027;28;20220;-78
2023/12/06 15:50:25;;;;;;;10.20;9.30;;;6.70;99.90;;;;;;10489440;28;20251;-78
2023/12/06 15:55:27;;;;;;;10.37;9.57;;;6.60;99.90;;;;;;10490075;28;20265;-78
2023/12/06 16:00:29;;;;;;;10.47;9.53;;;6.60;99.90;;;;;;10489684;28;20678;-78
2023/12/06 16:05:32;;;;;;;9.50;8.70;;;6.60;99.90;;;;;;10464344;28;20225;-78
2023/12/06 16:10:34;;;;;;;9.40;8.60;;;6.60;99.90;;;;;;10459546;28;20221;-78
2023/12/06 16:15:40;;;;;;;10.93;9.93;;;6.60;99.90;;;;;;10462904;28;20212;-78
2023/12/06 16:20:43;;;;;;;11.03;9.40;;;6.60;99.90;;;;;;10461460;28;20617;-78
2023/12/06 16:25:45;;;;;;;9.73;8.90;;;6.60;99.90;;;;;;10459256;28;20202;-78
2023/12/06 16:30:47;;;;;;;10.20;9.30;;;6.60;99.90;;;;;;10459098;28;20224;-78
2023/12/06 16:35:51;;;;;;;10.07;9.17;;;6.60;99.90;;;;;;10453007;28;20205;-78
2023/12/06 16:40:53;;;;;;;10.73;9.80;;;6.60;99.90;;;;;;10453742;28;20595;-78
2023/12/06 16:45:54;;;;;;;9.67;8.77;;;6.50;99.90;;;;;;10458428;28;20204;-78
2023/12/06 16:50:58;;;;;;;11.20;10.00;;;6.50;99.90;;;;;;10457343;28;20224;-77
2023/12/06 16:56:00;;;;;;;10.40;9.50;;;6.50;99.90;;;;;;10449600;28;20204;-78
2023/12/06 17:01:02;;;;;;;10.53;9.60;;;6.50;99.90;;;;;;10448344;28;20229;-77
2023/12/06 17:06:06;;;;;;;10.77;9.80;;;6.60;99.90;;;;;;10450687;28;20211;-78
2023/12/06 17:11:08;;;;;;;10.93;9.93;;;6.60;99.90;;;;;;10448534;28;20224;-77
2023/12/06 17:16:10;;;;;;;10.30;9.30;;;6.60;99.90;;;;;;10450506;28;20201;-78
2023/12/06 17:21:13;;;;;;;12.10;10.00;;;6.60;99.90;;;;;;10450888;28;20201;-78
2023/12/06 17:26:16;;;;;;;10.20;9.20;;;6.60;99.90;;;;;;10449087;28;20675;-77
2023/12/06 17:31:18;;;;;;;11.00;10.00;;;6.60;99.90;;;;;;10449626;28;20312;-77
2023/12/06 17:36:21;;;;;;;10.73;9.73;;;6.60;99.90;;;;;;10447998;28;20681;-77
2023/12/06 17:41:23;;;;;;;10.87;9.90;;;6.60;99.90;;;;;;10440691;28;20197;-77
2023/12/06 17:46:25;;;;;;;9.17;8.37;;;6.60;99.90;;;;;;10447660;28;20752;-78
2023/12/06 17:51:28;;;;;;;8.90;8.10;;;6.50;99.90;;;;;;10447922;28;20641;-77
2023/12/06 17:56:31;;;;;;;9.00;8.20;;;6.50;99.90;;;;;;10447521;28;20225;-78
2023/12/06 18:01:34;;;;;;;9.67;8.70;;;6.50;99.90;;;;;;10448298;28;20255;-77
2023/12/06 18:06:37;;;;;;;7.17;6.57;;;6.50;99.90;;;;;;10428180;22;20225;-81
2023/12/06 18:11:39;;;;;;;7.67;7.00;;;6.50;99.90;;;;;;10370195;28;20253;-80
2023/12/06 18:16:41;;;;;;;11.20;10.07;;;6.40;99.90;;;;;;10379590;28;20282;-80
2023/12/06 18:21:44;;;;;;;11.30;10.30;;;6.40;99.90;;;;;;10382783;28;20195;-83
2023/12/06 18:26:47;;;;;;;8.13;7.47;;;6.30;99.90;;;;;;10380796;28;20218;-82
2023/12/06 18:31:49;;;;;;;6.97;6.37;;;6.30;99.90;;;;;;10380387;28;20280;-80
2023/12/06 18:36:52;;;;;;;7.83;7.13;;;6.30;99.90;;;;;;10382578;28;20218;-79
2023/12/06 18:41:54;;;;;;;9.00;8.20;;;6.30;99.90;;;;;;10383184;28;20273;-80
2023/12/06 18:46:55;;;;;;;11.00;10.00;;;6.30;99.90;;;;;;10377485;28;20218;-80
2023/12/06 18:51:59;;;;;;;9.97;8.97;;;6.20;99.90;;;;;;10378562;28;20253;-80
2023/12/06 18:57:01;;;;;;;9.20;8.30;;;6.20;99.90;;;;;;10380638;28;20218;-79
2023/12/06 19:02:02;;;;;;;9.10;8.30;;;6.20;99.90;;;;;;10382198;28;20684;-80
2023/12/06 19:07:06;;;;;;;10.40;9.50;;;6.20;99.90;;;;;;10380778;28;20304;-80
2023/12/06 19:12:08;;;;;;;9.87;8.00;;;6.20;99.90;;;;;;10380223;28;20206;-80
2023/12/06 19:17:10;;;;;;;9.50;8.60;;;6.20;99.90;;;;;;10389491;28;20426;-79
2023/12/06 19:22:13;;;;;;;10.10;9.10;;;6.10;99.90;;;;;;10385995;28;20214;-81
2023/12/06 19:27:16;;;;;;;8.20;7.50;;;6.10;99.90;;;;;;10376384;28;20229;-80
2023/12/06 19:32:18;;;;;;;8.60;7.90;;;6.00;99.90;;;;;;10377381;28;20290;-80
2023/12/06 19:37:23;;;;;;;9.30;8.40;;;6.00;99.90;;;;;;10375571;28;20345;-79
2023/12/06 19:42:25;;;;;;;8.67;7.87;;;6.00;99.90;;;;;;10376102;28;20288;-79
2023/12/06 19:47:27;;;;;;;8.77;7.83;;;6.00;99.90;;;;;;10380129;28;20294;-80
2023/12/06 19:52:30;;;;;;;9.10;8.20;;;6.00;99.90;;;;;;10375906;28;20688;-79
2023/12/06 19:57:32;;;;;;;8.60;7.90;;;6.00;99.90;;;;;;10378163;28;20223;-80
2023/12/06 20:02:34;;;;;;;9.40;8.60;;;6.00;99.90;;;;;;10385056;28;20225;-80
2023/12/06 20:07:42;;;;;;;9.90;8.90;;;6.00;99.90;;;;;;10385134;28;20709;-80
2023/12/06 20:12:44;;;;;;;8.67;7.87;;;6.10;99.90;;;;;;10383287;28;20285;-81
2023/12/06 20:17:46;;;;;;;9.00;8.20;;;6.10;99.90;;;;;;10383638;28;20229;-80
2023/12/06 20:22:50;;;;;;;8.33;7.63;;;6.10;99.90;;;;;;10381136;28;20296;-79
2023/12/06 20:27:51;;;;;;;8.70;7.90;;;6.00;99.90;;;;;;10399326;28;20229;-81
2023/12/06 20:32:53;;;;;;;8.30;7.60;;;6.00;99.90;;;;;;10382918;28;20206;-80
2023/12/06 20:37:57;;;;;;;9.00;8.20;;;6.00;99.90;;;;;;10382088;28;20353;-80
2023/12/06 20:43:00;;;;;;;10.03;8.87;;;6.00;99.90;;;;;;10383965;28;20207;-79
2023/12/06 20:48:02;;;;;;;9.00;8.30;;;6.00;99.90;;;;;;10382392;28;20226;-81
2023/12/06 20:53:06;;;;;;;8.57;7.87;;;6.00;99.90;;;;;;10379874;28;20202;-81
2023/12/06 20:58:08;;;;;;;9.10;8.40;;;6.00;99.90;;;;;;10383568;28;20248;-80
2023/12/06 21:03:12;;;;;;;9.47;8.53;;;6.00;99.90;;;;;;10377639;28;20198;-80
2023/12/06 21:08:15;;;;;;;9.60;8.70;;;6.00;99.90;;;;;;10377589;28;20731;-80
2023/12/06 21:13:17;;;;;;;8.23;7.50;;;6.00;99.90;;;;;;10378035;28;20203;-81
2023/12/06 21:18:20;;;;;;;6.97;5.93;;;5.90;99.90;;;;;;10375050;28;20229;-81
2023/12/06 21:23:23;;;;;;;7.90;7.20;;;5.90;99.90;;;;;;10375935;28;20203;-80
2023/12/06 21:28:25;;;;;;;8.13;7.43;;;6.00;99.90;;;;;;10376647;28;20607;-79
2023/12/06 21:33:27;;;;;;;8.07;7.37;;;5.90;99.90;;;;;;10376856;28;20210;-80
2023/12/06 21:38:30;;;;;;;8.20;7.50;;;5.90;99.90;;;;;;10377888;28;20322;-80
2023/12/06 21:43:32;;;;;;;8.50;7.80;;;6.00;99.90;;;;;;10377654;28;20198;-80
2023/12/06 21:48:34;;;;;;;8.10;7.30;;;6.00;99.90;;;;;;10381678;28;20222;-81
2023/12/06 21:53:37;;;;;;;7.83;7.07;;;6.00;99.90;;;;;;10383138;28;20241;-79
2023/12/06 21:58:39;;;;;;;7.40;6.70;;;6.00;99.90;;;;;;10381015;28;20225;-80
2023/12/06 22:03:41;;;;;;;6.90;6.30;;;6.00;99.90;;;;;;10385086;28;20198;-80
2023/12/06 22:08:44;;;;;;;6.83;6.23;;;5.90;99.90;;;;;;10391739;28;20233;-81
2023/12/06 22:13:46;;;;;;;7.03;6.40;;;5.90;99.90;;;;;;10386570;28;20202;-80
2023/12/06 22:18:48;;;;;;;6.60;6.00;;;5.80;99.90;;;;;;10377615;28;20190;-80
2023/12/06 22:23:51;;;;;;;7.73;7.03;;;5.80;99.90;;;;;;10376895;28;20232;-79
2023/12/06 22:28:57;;;;;;;6.63;6.03;;;5.80;99.90;;;;;;10372949;28;20230;-79
2023/12/06 22:33:59;;;;;;;7.27;6.57;;;5.80;99.90;;;;;;10373115;28;20226;-79
2023/12/06 22:39:04;;;;;;;7.13;6.50;;;5.70;99.90;;;;;;10374904;28;20198;-79
2023/12/06 22:44:06;;;;;;;6.70;6.10;;;5.60;99.90;;;;;;10377186;28;20226;-80
2023/12/06 22:49:08;;;;;;;7.00;6.40;;;5.50;99.90;;;;;;10383458;28;20293;-80
2023/12/06 22:54:11;;;;;;;7.77;7.17;;;5.40;99.90;;;;;;10374704;28;20226;-79
2023/12/06 22:59:13;;;;;;;8.30;7.47;;;5.40;99.90;;;;;;10376821;28;20198;-81
2023/12/06 23:04:15;;;;;;;7.23;6.60;;;5.50;99.90;;;;;;10382651;28;20628;-78
2023/12/06 23:09:19;;;;;;;8.10;7.40;;;5.40;99.90;;;;;;10378172;28;20214;-79
2023/12/06 23:14:21;;;;;;;10.03;8.60;;;5.40;99.90;;;;;;10377844;28;20277;-79
2023/12/06 23:19:23;;;;;;;9.40;7.40;;;5.40;99.90;;;;;;10370004;28;20206;-78
2023/12/06 23:24:26;;;;;;;8.73;7.80;;;5.30;99.90;;;;;;10372413;28;20287;-79
2023/12/06 23:29:28;;;;;;;7.90;7.13;;;5.30;99.90;;;;;;10374854;28;20223;-78
2023/12/06 23:34:30;;;;;;;8.93;8.13;;;5.20;99.90;;;;;;10369976;28;20219;-77
2023/12/06 23:39:34;;;;;;;10.37;9.40;;;5.20;99.90;;;;;;10364263;28;20859;-78
2023/12/06 23:44:35;;;;;;;10.03;9.03;;;5.20;99.90;;;;;;10362110;28;20214;-79
2023/12/06 23:49:37;;;;;;;12.50;9.40;;;5.30;99.90;;;;;;10375026;28;20272;-78
2023/12/06 23:54:40;;;;;;;10.70;9.70;;;5.40;99.90;;;;;;10372829;28;20284;-78
2023/12/06 23:59:42;;;;;;;9.67;8.67;;;5.50;99.90;;;;;;10373197;28;20752;-78
